createdAt,value
2019-02-14T00:01:14.751Z,98795.50
2019-02-14T00:03:44.900Z,98800.48
2019-02-14T00:06:15.058Z,98800.97
2019-02-14T00:08:45.956Z,98802.21
2019-02-14T00:11:16.150Z,98805.47
2019-02-14T00:13:46.350Z,98806.20
2019-02-14T00:16:17.306Z,98799.48
2019-02-14T00:18:47.487Z,98805.95
2019-02-14T00:21:17.746Z,98810.94
2019-02-14T00:23:47.896Z,98807.69
2019-02-14T00:26:18.844Z,98802.58
2019-02-14T00:28:48.990Z,98800.09
2019-02-14T00:31:19.210Z,98792.49
2019-02-14T00:33:49.365Z,98790.00
2019-02-14T00:36:19.675Z,98788.23
2019-02-14T00:38:50.998Z,98789.00
2019-02-14T00:41:21.273Z,98794.75
2019-02-14T00:43:51.425Z,98781.28
2019-02-14T00:46:21.550Z,98775.78
2019-02-14T00:49:14.769Z,98771.05
2019-02-14T00:52:13.556Z,98752.48
2019-02-14T00:55:08.617Z,98751.36
2019-02-14T00:58:04.683Z,98763.34
2019-02-14T01:01:01.216Z,98741.39
2019-02-14T01:03:56.687Z,98742.16
2019-02-14T01:06:53.353Z,98751.00
2019-02-14T01:09:51.118Z,98753.38
2019-02-14T01:12:46.823Z,98749.88
2019-02-14T01:15:43.573Z,98740.16
2019-02-14T01:18:39.850Z,98747.02
2019-02-14T01:21:36.641Z,98749.75
2019-02-14T01:24:32.941Z,98734.44
2019-02-14T01:27:27.987Z,98741.39
2019-02-14T01:30:24.033Z,98736.41
2019-02-14T01:33:19.686Z,98748.87
2019-02-14T01:36:16.231Z,98764.34
2019-02-14T01:39:12.989Z,98763.59
2019-02-14T01:42:09.693Z,98767.81
2019-02-14T01:45:06.354Z,98762.31
2019-02-14T01:48:01.737Z,98764.56
2019-02-14T01:50:59.252Z,98772.03
2019-02-14T01:53:55.199Z,98773.00
2019-02-14T01:56:50.906Z,98769.27
2019-02-14T01:59:47.705Z,98781.72
2019-02-14T02:02:42.978Z,98780.98
2019-02-14T02:05:39.745Z,98775.00
2019-02-14T02:08:36.587Z,98772.16
2019-02-14T02:11:34.317Z,98771.75
2019-02-14T02:14:29.811Z,98769.27
2019-02-14T02:17:25.409Z,98765.53
2019-02-14T02:20:20.879Z,98765.92
2019-02-14T02:23:19.843Z,98770.02
2019-02-14T02:26:16.596Z,98765.41
2019-02-14T02:29:12.095Z,98765.28
2019-02-14T02:32:09.439Z,98758.82
2019-02-14T02:35:04.508Z,98758.82
2019-02-14T02:38:01.053Z,98758.34
2019-02-14T02:40:56.542Z,98767.53
2019-02-14T02:43:53.128Z,98776.25
2019-02-14T02:46:49.823Z,98767.77
2019-02-14T02:49:46.556Z,98760.67
2019-02-14T02:52:44.151Z,98760.83
2019-02-14T02:55:39.817Z,98755.84
2019-02-14T02:58:35.727Z,98757.05
2019-02-14T03:01:32.214Z,98759.66
2019-02-14T03:04:27.904Z,98762.79
2019-02-14T03:07:24.642Z,98759.05
2019-02-14T03:14:41.702Z,98767.25
2019-02-14T03:17:38.179Z,98764.03
2019-02-14T03:20:33.683Z,98751.59
2019-02-14T03:23:32.309Z,98753.20
2019-02-14T03:26:28.120Z,98754.80
2019-02-14T03:29:25.474Z,98756.56
2019-02-14T03:32:20.911Z,98748.09
2019-02-14T03:35:18.210Z,98751.83
2019-02-14T03:38:14.358Z,98757.77
2019-02-14T03:41:09.832Z,98757.53
2019-02-14T03:44:07.129Z,98763.52
2019-02-14T03:47:02.748Z,98763.75
2019-02-14T03:50:00.612Z,98768.01
2019-02-14T03:52:57.302Z,98771.98
2019-02-14T03:55:53.794Z,98775.47
2019-02-14T03:58:49.148Z,98770.25
2019-02-14T04:01:46.495Z,98776.96
2019-02-14T04:04:43.194Z,98780.70
2019-02-14T04:07:46.309Z,98791.14
2019-02-14T04:10:42.886Z,98795.63
2019-02-14T04:13:38.349Z,98793.62
2019-02-14T04:16:36.235Z,98794.27
2019-02-14T04:19:32.010Z,98809.32
2019-02-14T04:22:28.673Z,98815.55
2019-02-14T04:25:24.998Z,98825.98
2019-02-14T04:28:20.679Z,98827.20
2019-02-14T04:31:15.746Z,98823.47
2019-02-14T04:34:13.320Z,98824.97
2019-02-14T04:37:09.796Z,98822.00
2019-02-14T04:40:04.830Z,98824.74
2019-02-14T04:43:02.603Z,98820.77
2019-02-14T04:45:58.120Z,98815.06
2019-02-14T04:48:54.621Z,98814.80
2019-02-14T04:51:51.199Z,98798.89
2019-02-14T04:54:48.000Z,98801.14
2019-02-14T04:57:42.979Z,98800.62
2019-02-14T05:00:39.495Z,98784.67
2019-02-14T05:03:35.979Z,98783.95
2019-02-14T05:06:31.474Z,98788.66
2019-02-14T05:09:28.955Z,98779.21
2019-02-14T05:12:23.964Z,98780.45
2019-02-14T05:15:21.720Z,98779.33
2019-02-14T05:18:18.211Z,98780.21
2019-02-14T05:21:15.215Z,98780.21
2019-02-14T05:24:12.708Z,98782.19
2019-02-14T05:27:08.195Z,98791.67
2019-02-14T05:30:05.075Z,98796.41
2019-02-14T05:33:00.555Z,98788.58
2019-02-14T05:35:57.987Z,98789.42
2019-02-14T05:38:53.706Z,98791.19
2019-02-14T05:41:50.296Z,98807.13
2019-02-14T05:44:47.543Z,98806.13
2019-02-14T05:47:44.792Z,98803.63
2019-02-14T05:50:42.144Z,98810.10
2019-02-14T05:53:38.716Z,98816.45
2019-02-14T05:56:35.217Z,98819.30
2019-02-14T05:59:30.660Z,98826.05
2019-02-14T06:02:26.629Z,98843.07
2019-02-14T06:05:23.391Z,98843.95
2019-02-14T06:08:19.877Z,98840.47
2019-02-14T06:11:14.522Z,98845.97
2019-02-14T06:14:10.889Z,98846.97
2019-02-14T06:17:07.306Z,98840.23
2019-02-14T06:20:04.020Z,98848.45
2019-02-14T06:23:00.767Z,98841.35
2019-02-14T06:25:57.336Z,98854.16
2019-02-14T06:28:54.103Z,98851.55
2019-02-14T06:31:49.719Z,98856.66
2019-02-14T06:34:44.706Z,98860.39
2019-02-14T06:37:41.218Z,98856.66
2019-02-14T06:40:36.947Z,98858.55
2019-02-14T06:43:33.666Z,98863.65
2019-02-14T06:46:30.167Z,98870.88
2019-02-14T06:49:26.883Z,98872.14
2019-02-14T06:52:24.516Z,98867.92
2019-02-14T06:55:21.241Z,98864.95
2019-02-14T06:58:17.860Z,98860.98
2019-02-14T07:01:13.642Z,98865.20
2019-02-14T07:04:10.157Z,98861.58
2019-02-14T07:07:07.706Z,98859.45
2019-02-14T07:10:04.324Z,98865.20
2019-02-14T07:13:00.948Z,98862.48
2019-02-14T07:15:56.247Z,98870.59
2019-02-14T07:18:54.018Z,98876.19
2019-02-14T07:21:51.625Z,98877.67
2019-02-14T07:24:47.180Z,98873.69
2019-02-14T07:27:43.844Z,98879.08
2019-02-14T07:30:39.527Z,98882.70
2019-02-14T07:33:36.047Z,98877.72
2019-02-14T07:36:32.830Z,98885.95
2019-02-14T07:39:28.717Z,98880.20
2019-02-14T07:42:25.254Z,98878.97
2019-02-14T07:45:21.684Z,98879.97
2019-02-14T07:48:18.436Z,98879.97
2019-02-14T07:51:13.965Z,98879.23
2019-02-14T07:54:10.781Z,98874.25
2019-02-14T07:57:06.507Z,98873.28
2019-02-14T08:00:02.660Z,98870.27
2019-02-14T08:02:58.087Z,98879.51
2019-02-14T08:05:54.792Z,98882.88
2019-02-14T08:08:50.307Z,98886.73
2019-02-14T08:11:46.543Z,98878.00
2019-02-14T08:14:43.072Z,98876.02
2019-02-14T08:17:39.520Z,98880.23
2019-02-14T08:20:36.227Z,98886.48
2019-02-14T08:23:32.789Z,98877.47
2019-02-14T08:26:31.015Z,98886.48
2019-02-14T08:29:27.590Z,98889.33
2019-02-14T08:32:36.348Z,98891.20
2019-02-14T08:35:40.071Z,98889.20
2019-02-14T08:38:35.594Z,98891.81
2019-02-14T08:41:32.489Z,98887.94
2019-02-14T08:44:28.260Z,98893.66
2019-02-14T08:47:26.081Z,98892.68
2019-02-14T08:50:21.787Z,98882.42
2019-02-14T08:53:18.520Z,98885.91
2019-02-14T08:56:14.030Z,98905.36
2019-02-14T08:59:15.668Z,98901.34
2019-02-14T09:02:12.195Z,98894.84
2019-02-14T09:05:07.472Z,98886.20
2019-02-14T09:08:03.997Z,98877.52
2019-02-14T09:11:00.615Z,98871.05
2019-02-14T09:13:57.337Z,98868.07
2019-02-14T09:16:52.676Z,98865.20
2019-02-14T09:19:49.266Z,98869.12
2019-02-14T09:22:46.718Z,98870.53
2019-02-14T09:25:43.367Z,98860.06
2019-02-14T09:28:42.010Z,98870.48
2019-02-14T09:31:37.483Z,98871.00
2019-02-14T09:34:34.223Z,98871.94
2019-02-14T09:37:30.679Z,98879.66
2019-02-14T09:40:26.913Z,98886.07
2019-02-14T09:43:29.644Z,98873.23
2019-02-14T09:46:19.419Z,98877.44
2019-02-14T09:49:16.062Z,98876.07
2019-02-14T09:52:11.654Z,98878.48
2019-02-14T09:55:08.388Z,98871.39
2019-02-14T09:58:04.033Z,98870.64
2019-02-14T10:01:00.578Z,98865.83
2019-02-14T10:03:56.087Z,98854.30
2019-02-14T10:06:52.651Z,98853.61
2019-02-14T10:09:48.542Z,98846.94
2019-02-14T10:12:45.149Z,98844.72
2019-02-14T10:15:41.861Z,98841.41
2019-02-14T10:18:37.421Z,98840.60
2019-02-14T10:21:34.960Z,98846.52
2019-02-14T10:24:30.494Z,98840.30
2019-02-14T10:27:28.876Z,98834.36
2019-02-14T10:30:26.198Z,98840.59
2019-02-14T10:33:22.910Z,98846.37
2019-02-14T10:36:19.921Z,98850.36
2019-02-14T10:39:22.432Z,98840.59
2019-02-14T10:42:19.913Z,98842.55
2019-02-14T10:45:23.859Z,98829.81
2019-02-14T10:48:27.786Z,98836.77
2019-02-14T10:51:29.461Z,98841.82
2019-02-14T10:54:25.999Z,98849.26
2019-02-14T10:57:21.958Z,98849.26
2019-02-14T11:00:18.873Z,98849.38
2019-02-14T11:03:15.341Z,98845.91
2019-02-14T11:06:11.043Z,98832.16
2019-02-14T11:09:07.553Z,98824.41
2019-02-14T11:12:06.455Z,98822.28
2019-02-14T11:15:02.954Z,98816.85
2019-02-14T11:17:58.316Z,98814.14
2019-02-14T11:20:54.617Z,98813.13
2019-02-14T11:23:52.381Z,98808.35
2019-02-14T11:26:47.210Z,98813.55
2019-02-14T11:29:46.151Z,98820.02
2019-02-14T11:32:41.726Z,98808.87
2019-02-14T11:35:38.180Z,98805.09
2019-02-14T11:38:40.373Z,98811.63
2019-02-14T11:41:30.150Z,98812.77
2019-02-14T11:44:27.762Z,98818.63
2019-02-14T11:47:23.349Z,98819.30
2019-02-14T11:50:21.508Z,98807.97
2019-02-14T11:53:16.449Z,98814.60
2019-02-14T11:56:13.209Z,98824.48
2019-02-14T11:59:08.701Z,98817.92
2019-02-14T12:02:05.443Z,98803.38
2019-02-14T12:05:02.194Z,98804.31
2019-02-14T12:07:58.662Z,98797.39
2019-02-14T12:10:54.181Z,98791.27
2019-02-14T12:13:50.681Z,98795.10
2019-02-14T12:16:47.231Z,98781.09
2019-02-14T12:19:42.705Z,98781.45
2019-02-14T12:22:46.356Z,98774.73
2019-02-14T12:25:35.756Z,98770.56
2019-02-14T12:28:32.543Z,98761.33
2019-02-14T12:31:30.341Z,98756.30
2019-02-14T12:34:26.045Z,98756.14
2019-02-14T12:37:22.804Z,98764.81
2019-02-14T12:40:18.883Z,98762.02
2019-02-14T12:43:15.687Z,98748.08
2019-02-14T12:46:11.445Z,98734.70
2019-02-14T12:49:08.026Z,98724.17
2019-02-14T12:52:02.793Z,98716.14
2019-02-14T12:55:00.299Z,98711.89
2019-02-14T12:57:55.670Z,98705.11
2019-02-14T13:00:52.976Z,98684.77
2019-02-14T13:03:54.591Z,98680.95
2019-02-14T13:06:49.974Z,98694.67
2019-02-14T13:09:46.718Z,98693.73
2019-02-14T13:12:43.373Z,98679.53
2019-02-14T13:15:40.837Z,98678.44
2019-02-14T13:18:36.359Z,98691.28
2019-02-14T13:21:34.021Z,98689.61
2019-02-14T13:24:30.337Z,98693.25
2019-02-14T13:27:25.891Z,98684.48
2019-02-14T13:30:22.449Z,98685.67
2019-02-14T13:33:18.247Z,98698.30
2019-02-14T13:36:14.785Z,98694.48
2019-02-14T13:39:10.250Z,98690.52
2019-02-14T13:42:08.858Z,98701.11
2019-02-14T13:45:05.541Z,98710.89
2019-02-14T13:48:01.023Z,98714.82
2019-02-14T13:50:58.852Z,98715.45
2019-02-14T13:53:54.542Z,98715.73
2019-02-14T13:56:54.144Z,98708.78
2019-02-14T13:59:48.057Z,98702.47
2019-02-14T14:02:44.522Z,98701.34
2019-02-14T14:05:40.352Z,98703.86
2019-02-14T14:08:36.063Z,98698.45
2019-02-14T14:11:33.562Z,98689.86
2019-02-14T14:14:29.297Z,98692.06
2019-02-14T14:17:26.034Z,98692.88
2019-02-14T14:20:21.637Z,98693.95
2019-02-14T14:23:19.887Z,98694.84
2019-02-14T14:26:14.056Z,98691.22
2019-02-14T14:29:09.743Z,98687.77
2019-02-14T14:32:06.505Z,98690.24
2019-02-14T14:35:03.238Z,98690.41
2019-02-14T14:37:59.950Z,98686.64
2019-02-14T14:40:57.764Z,98689.65
2019-02-14T14:44:04.884Z,98692.17
2019-02-14T14:47:04.879Z,98685.70
2019-02-14T14:50:00.359Z,98687.45
2019-02-14T14:52:58.603Z,98681.07
2019-02-14T14:55:56.981Z,98670.44
2019-02-14T14:58:54.814Z,98675.14
2019-02-14T15:02:01.872Z,98675.68
2019-02-14T15:04:57.325Z,98670.91
2019-02-14T15:07:54.814Z,98661.03
2019-02-14T15:10:50.985Z,98661.45
2019-02-14T15:13:58.987Z,98666.25
2019-02-14T15:17:00.644Z,98651.70
2019-02-14T15:19:57.215Z,98653.68
2019-02-14T15:22:53.359Z,98653.50
2019-02-14T15:25:49.264Z,98657.67
2019-02-14T15:28:46.865Z,98669.80
2019-02-14T15:31:43.391Z,98662.54
2019-02-14T15:34:39.994Z,98641.67
2019-02-14T15:37:38.813Z,98634.30
2019-02-14T15:40:35.632Z,98637.61
2019-02-14T15:43:32.494Z,98648.39
2019-02-14T15:46:29.414Z,98650.33
2019-02-14T15:49:25.468Z,98648.66
2019-02-14T15:52:32.325Z,98643.56
2019-02-14T15:55:28.455Z,98642.44
2019-02-14T15:58:25.206Z,98645.37
2019-02-14T16:01:21.813Z,98645.52
2019-02-14T16:04:18.384Z,98649.31
2019-02-14T16:07:17.562Z,98651.30
2019-02-14T16:10:18.217Z,98652.05
2019-02-14T16:13:09.224Z,98650.08
2019-02-14T16:16:03.083Z,98653.31
2019-02-14T16:18:59.817Z,98655.80
2019-02-14T16:21:56.455Z,98655.55
2019-02-14T16:24:52.142Z,98666.34
2019-02-14T16:27:50.566Z,98663.75
2019-02-14T16:30:46.012Z,98670.31
2019-02-14T16:33:43.864Z,98668.28
2019-02-14T16:36:41.799Z,98668.70
2019-02-14T16:39:38.499Z,98673.37
2019-02-14T16:42:35.050Z,98673.01
2019-02-14T16:45:30.164Z,98672.44
2019-02-14T16:48:26.724Z,98666.92
2019-02-14T16:51:22.107Z,98668.05
2019-02-14T16:54:19.726Z,98661.73
2019-02-14T16:57:16.557Z,98667.98
2019-02-14T17:00:12.159Z,98675.61
2019-02-14T17:03:09.586Z,98677.30
2019-02-14T17:06:05.100Z,98679.17
2019-02-14T17:09:01.143Z,98683.45
2019-02-14T17:11:57.869Z,98689.80
2019-02-14T17:14:53.260Z,98688.15
2019-02-14T17:17:50.783Z,98708.08
2019-02-14T17:20:46.014Z,98702.33
2019-02-14T17:23:48.757Z,98708.43
2019-02-14T17:26:45.659Z,98706.27
2019-02-14T17:29:41.451Z,98716.47
2019-02-14T17:32:37.632Z,98718.75
2019-02-14T17:35:33.900Z,98726.72
2019-02-14T17:38:31.591Z,98725.38
2019-02-14T17:41:29.127Z,98728.43
2019-02-14T17:44:27.608Z,98727.70
2019-02-14T17:47:23.684Z,98724.64
2019-02-14T17:50:18.917Z,98724.86
2019-02-14T17:53:15.496Z,98721.20
2019-02-14T17:56:11.218Z,98724.31
2019-02-14T17:59:07.959Z,98721.05
2019-02-14T18:02:09.508Z,98725.33
2019-02-14T18:05:05.112Z,98723.48
2019-02-14T18:08:01.776Z,98725.89
2019-02-14T18:10:57.563Z,98714.58
2019-02-14T18:13:53.626Z,98721.23
2019-02-14T18:16:50.476Z,98716.88
2019-02-14T18:19:46.129Z,98726.32
2019-02-14T18:22:43.741Z,98720.23
2019-02-14T18:25:40.549Z,98717.12
2019-02-14T18:28:37.518Z,98721.77
2019-02-14T18:31:32.947Z,98723.08
2019-02-14T18:34:30.590Z,98719.07
2019-02-14T18:37:27.507Z,98719.07
2019-02-14T18:40:23.795Z,98713.27
2019-02-14T18:43:21.383Z,98718.27
2019-02-14T18:46:18.233Z,98718.63
2019-02-14T18:49:16.223Z,98716.48
2019-02-14T18:52:12.908Z,98719.81
2019-02-14T18:55:09.700Z,98707.63
2019-02-14T18:58:06.280Z,98716.48
2019-02-14T19:01:01.890Z,98720.31
2019-02-14T19:03:58.684Z,98719.23
2019-02-14T19:06:55.294Z,98725.67
2019-02-14T19:09:50.006Z,98719.69
2019-02-14T19:12:47.453Z,98719.95
2019-02-14T19:15:43.041Z,98717.73
2019-02-14T19:18:40.712Z,98710.66
2019-02-14T19:21:37.384Z,98711.71
2019-02-14T19:24:33.948Z,98712.53
2019-02-14T19:27:29.776Z,98709.72
2019-02-14T19:30:26.204Z,98707.02
2019-02-14T19:33:24.078Z,98707.56
2019-02-14T19:36:20.680Z,98708.10
2019-02-14T19:39:17.515Z,98714.42
2019-02-14T19:42:30.149Z,98708.98
2019-02-14T19:45:38.131Z,98709.41
2019-02-14T19:48:33.156Z,98708.13
2019-02-14T19:51:29.939Z,98704.44
2019-02-14T19:54:26.213Z,98701.59
2019-02-14T19:57:22.339Z,98710.03
2019-02-14T20:00:19.000Z,98705.84
2019-02-14T20:03:15.713Z,98706.41
2019-02-14T20:06:12.713Z,98704.33
2019-02-14T20:09:09.774Z,98704.52
2019-02-14T20:12:05.382Z,98699.36
2019-02-14T20:15:02.204Z,98694.17
2019-02-14T20:17:58.628Z,98692.70
2019-02-14T20:20:54.454Z,98691.00
2019-02-14T20:23:50.279Z,98689.06
2019-02-14T20:26:48.081Z,98684.59
2019-02-14T20:29:45.090Z,98681.63
2019-02-14T20:32:40.849Z,98685.44
2019-02-14T20:35:37.239Z,98687.93
2019-02-14T20:38:32.567Z,98694.69
2019-02-14T20:41:29.389Z,98699.44
2019-02-14T20:44:25.792Z,98699.48
2019-02-14T20:47:23.593Z,98709.27
2019-02-14T20:50:19.467Z,98707.30
2019-02-14T20:53:16.342Z,98703.33
2019-02-14T20:56:13.062Z,98708.84
2019-02-14T20:59:08.713Z,98704.98
2019-02-14T21:02:07.544Z,98711.13
2019-02-14T21:05:03.205Z,98721.75
2019-02-14T21:07:59.851Z,98718.38
2019-02-14T21:10:56.126Z,98725.64
2019-02-14T21:13:52.758Z,98726.27
2019-02-14T21:16:49.517Z,98732.41
2019-02-14T21:19:47.174Z,98738.54
2019-02-14T21:24:59.104Z,98728.66
2019-02-14T21:27:30.333Z,98733.91
2019-02-14T21:30:00.489Z,98737.33
2019-02-14T21:32:30.765Z,98739.47
2019-02-14T21:35:00.943Z,98737.95
2019-02-14T21:37:31.160Z,98736.97
2019-02-14T21:40:01.736Z,98731.86
2019-02-14T21:42:32.471Z,98732.52
2019-02-14T21:45:03.485Z,98727.27
2019-02-14T21:47:33.760Z,98726.56
2019-02-14T21:50:05.023Z,98717.57
2019-02-14T21:52:35.177Z,98713.13
2019-02-14T21:55:05.603Z,98705.92
2019-02-14T21:57:35.851Z,98704.67
2019-02-14T22:00:07.990Z,98699.94
2019-02-14T22:02:39.004Z,98705.22
2019-02-14T22:05:09.770Z,98709.22
2019-02-14T22:07:40.070Z,98707.34
2019-02-14T22:10:11.545Z,98709.73
2019-02-14T22:12:44.138Z,98708.38
2019-02-14T22:15:15.923Z,98710.24
2019-02-14T22:17:46.174Z,98706.75
2019-02-14T22:20:16.497Z,98707.00
2019-02-14T22:22:47.561Z,98699.04
2019-02-14T22:25:17.753Z,98699.81
2019-02-14T22:27:47.920Z,98707.03
2019-02-14T22:30:18.330Z,98713.53
2019-02-14T22:32:48.492Z,98710.08
2019-02-14T22:35:18.707Z,98715.31
2019-02-14T22:37:48.862Z,98716.56
2019-02-14T22:40:19.225Z,98719.79
2019-02-14T22:42:49.598Z,98716.30
2019-02-14T22:45:19.793Z,98718.06
2019-02-14T22:47:49.975Z,98718.80
2019-02-14T22:50:20.118Z,98717.69
2019-02-14T22:52:50.296Z,98717.57
2019-02-14T22:55:20.489Z,98722.33
2019-02-14T22:57:50.663Z,98716.35
2019-02-14T23:00:31.804Z,98725.33
2019-02-14T23:03:02.832Z,98727.34
2019-02-14T23:05:32.994Z,98726.58
2019-02-14T23:10:32.443Z,98725.84
2019-02-14T23:13:02.730Z,98719.73
2019-02-14T23:15:32.860Z,98726.38
2019-02-14T23:18:04.023Z,98713.90
2019-02-14T23:20:34.976Z,98717.02
2019-02-14T23:23:06.336Z,98720.39
2019-02-14T23:25:37.280Z,98725.88
2019-02-14T23:28:07.524Z,98718.28
